עמוד ראשי
METAR-TAF:

METAR-TAF

שדות תעופה :

Hay River, הטריטוריות הצפון-מערביות, קנדה

קו רוחב: 60-50N, קו אורך: 115-47W, גובה: 164מטר

תצפית מזג אוויר נוכחית

הדו"ח נערך לפני 57דקות, בשעה 19:00 UTC
רוח 4קשר מכיוון צפון/צפון-מערב, משתנה בין מערב ו מזרח/צפון-מזרח
טמפרטורת 9 צלסיוס
לחות 53%
לחץ 1012 hPa
ראות: 24.1קילומטר
מעט עננים בגובה 3800רגל
עננים בינוניים בגובה 21000רגל
עננים בינוניים בגובה 23000רגל

METAR: CYHY 171900Z 33004KT 270V070 15SM FEW038 BKN210 BKN230 09/M00 A2987 RMK SC2CS3CI2 SLP126

זמן: 13:57 (19:57 UTC)

תחזית

הדו"ח נערך לפני 2 שעות ו 14דקות, בשעה 17:43 UTC
תחזית בתוקף מ 17 ב 18 UTC עד 18 ב 06 UTC
רוח 8קשר מכיוון צפון
ראות: 10קילומטר
עננים פזורים בגובה 5000רגל
עננים בינוניים בגובה 22000רגל
יעשה מ
17 ב 19 UTC עד 17 ב 21 UTC
רוח 5קשר מכיוון מזרח
מ 17 ב 2100UTC
רוח 5קשר מכיוון מזרח
ראות: 10קילומטר
עננים פזורים בגובה 6000רגל
עננים בינוניים בגובה 22000רגל

TAF: CYHY 171743Z 1718/1806 36008KT P6SM SCT050 BKN220 BECMG 1719/1721 08005KT FM172100 08005KT P6SM SCT060 BKN220 RMK NXT FCST BY 180000Z

תצפיות ותחזיות מזג אוויר לגבי יותר מ- 4,000 שדות תעופה ברחבי העולם. דוחות METAR ו- TAF.

התחנות הזמינות מסומנות בנקודות צהובות ואדומות על גבי המפה.

העבר את העכבר לנקודה הצבעונית על מנת לראות את שם התחנה.

לאחר מכן, לחץ כדי לראות את תוכן ואת תחזיות מזג האוויר.

כדי לשנות את המפה: לחץ על הכפתורים הירוקים עם הפלוס השחור כדי להתקרב; על הכפתור הירוק עם המקף כדי להתרחק; או בחיצים הירוקים למפות סמוכות.


METAR-TAF: